首页
METAR-TAF:

METAR-TAF

机场 :

西安, 中华人民共和国

西安咸阳国际机场

纬度: 34-26N, 经度: 108-45E, 海拔: 479米

当前天气观测

该预报发布于21分钟前的22:00 UTC
风速2节,风向西
温度 6°C
湿度 93%
气压 1016 hPa
能見度: 5000
轻雾

METAR: ZLXY 252200Z 28001MPS 5000 BR NSC 06/05 Q1016 NOSIG

时间: 06:21 (22:21 UTC)

预报

该预报发布于6小时和58分钟前的15:23 UTC
预报有效从25日的 18点(UTC)到 26日的 18点(UTC)
风速6节,风向西
能見度: 3000
轻雾
短暂存在
从 25日的 18点(UTC)到 25日的 24点(UTC)
能見度: 0700

TAF: ZLXY 251523Z 2518/2618 27003MPS 3000 BR NSC TX26/2608Z TN09/2522Z TEMPO 2518/2524 0700 FG

超过4000个机场的气象观测和天气预报(METAR&TAF报告)。

可查询的气象台以黄色和红色小点在地图上表示。

将鼠标移到小点上方,可查看气象台名称。

然后点击查看天气观测和预报。

如需切换地图:点击带黑十字的绿色按钮放大地图;点击带横线的绿色按钮缩小地图;或者点击绿色箭头查看邻近地区的地图。


METAR-TAF: